sensor_id;sensor_type;location;lat;lon;timestamp;pressure;altitude;pressure_sealevel;temperature;humidity
16544;BME280;8384;47.996;7.786;2022-09-09T00:02:19;98489.75;;;16.21;71.64
16544;BME280;8384;47.996;7.786;2022-09-09T00:04:53;98483.59;;;16.10;72.81
16544;BME280;8384;47.996;7.786;2022-09-09T00:10:28;98495.38;;;15.49;73.46
16544;BME280;8384;47.996;7.786;2022-09-09T00:13:09;98497.66;;;15.61;73.49
16544;BME280;8384;47.996;7.786;2022-09-09T00:15:50;98469.78;;;15.63;74.10
16544;BME280;8384;47.996;7.786;2022-09-09T00:19:20;98496.16;;;16.02;73.38
16544;BME280;8384;47.996;7.786;2022-09-09T00:21:18;98495.25;;;16.07;73.20
16544;BME280;8384;47.996;7.786;2022-09-09T00:23:55;98497.13;;;15.92;72.27
16544;BME280;8384;47.996;7.786;2022-09-09T00:31:37;98495.88;;;15.84;73.35
16544;BME280;8384;47.996;7.786;2022-09-09T00:34:21;98503.69;;;15.77;75.29
16544;BME280;8384;47.996;7.786;2022-09-09T00:36:49;98503.78;;;16.05;73.42
16544;BME280;8384;47.996;7.786;2022-09-09T00:39:36;98510.28;;;16.42;71.94
16544;BME280;8384;47.996;7.786;2022-09-09T00:44:36;98507.44;;;15.86;74.18
16544;BME280;8384;47.996;7.786;2022-09-09T00:50:15;98499.72;;;15.50;75.62
16544;BME280;8384;47.996;7.786;2022-09-09T00:55:34;98497.50;;;16.18;72.87
16544;BME280;8384;47.996;7.786;2022-09-09T00:58:06;98510.34;;;16.09;73.44
16544;BME280;8384;47.996;7.786;2022-09-09T01:00:52;98512.19;;;16.00;73.46
16544;BME280;8384;47.996;7.786;2022-09-09T01:06:28;98513.69;;;15.21;78.65
16544;BME280;8384;47.996;7.786;2022-09-09T01:09:03;98508.47;;;15.19;78.68
16544;BME280;8384;47.996;7.786;2022-09-09T01:11:38;98507.34;;;15.39;77.65
16544;BME280;8384;47.996;7.786;2022-09-09T01:14:24;98491.72;;;15.35;78.14
16544;BME280;8384;47.996;7.786;2022-09-09T01:16:58;98488.63;;;15.22;78.33
16544;BME280;8384;47.996;7.786;2022-09-09T01:19:57;98476.97;;;15.25;78.58
16544;BME280;8384;47.996;7.786;2022-09-09T01:22:26;98496.38;;;15.53;78.10
16544;BME280;8384;47.996;7.786;2022-09-09T01:27:43;98485.06;;;15.55;77.43
16544;BME280;8384;47.996;7.786;2022-09-09T01:30:11;98504.97;;;15.33;79.58
16544;BME280;8384;47.996;7.786;2022-09-09T01:32:45;98520.69;;;15.32;79.29
16544;BME280;8384;47.996;7.786;2022-09-09T01:37:55;98522.31;;;15.33;79.58
16544;BME280;8384;47.996;7.786;2022-09-09T01:40:21;98524.09;;;15.24;79.88
16544;BME280;8384;47.996;7.786;2022-09-09T01:42:47;98530.06;;;15.31;80.59
16544;BME280;8384;47.996;7.786;2022-09-09T01:45:12;98514.00;;;15.19;80.69
16544;BME280;8384;47.996;7.786;2022-09-09T01:47:38;98503.69;;;15.06;81.78
16544;BME280;8384;47.996;7.786;2022-09-09T01:50:04;98505.47;;;14.96;83.31
16544;BME280;8384;47.996;7.786;2022-09-09T01:52:30;98524.75;;;15.35;83.61
16544;BME280;8384;47.996;7.786;2022-09-09T01:54:57;98535.69;;;15.59;82.58
16544;BME280;8384;47.996;7.786;2022-09-09T01:57:27;98534.47;;;15.65;81.96
16544;BME280;8384;47.996;7.786;2022-09-09T02:00:12;98527.28;;;15.50;82.53
16544;BME280;8384;47.996;7.786;2022-09-09T02:02:46;98523.97;;;15.67;81.68
16544;BME280;8384;47.996;7.786;2022-09-09T02:05:40;98521.47;;;15.71;81.16
16544;BME280;8384;47.996;7.786;2022-09-09T02:08:10;98519.97;;;15.59;81.89
16544;BME280;8384;47.996;7.786;2022-09-09T02:11:07;98510.75;;;15.50;82.35
16544;BME280;8384;47.996;7.786;2022-09-09T02:13:36;98509.56;;;15.37;83.23
16544;BME280;8384;47.996;7.786;2022-09-09T02:16:14;98504.31;;;15.41;83.03
16544;BME280;8384;47.996;7.786;2022-09-09T02:18:51;98508.31;;;15.29;83.25
16544;BME280;8384;47.996;7.786;2022-09-09T02:21:21;98510.94;;;15.40;82.84
16544;BME280;8384;47.996;7.786;2022-09-09T02:23:48;98510.66;;;15.55;81.90
16544;BME280;8384;47.996;7.786;2022-09-09T02:26:17;98462.84;;;15.32;80.84
16544;BME280;8384;47.996;7.786;2022-09-09T02:28:49;98497.28;;;15.49;81.45
16544;BME280;8384;47.996;7.786;2022-09-09T02:31:17;98510.06;;;15.58;81.88
16544;BME280;8384;47.996;7.786;2022-09-09T02:33:49;98506.72;;;15.62;81.97
16544;BME280;8384;47.996;7.786;2022-09-09T02:36:18;98499.84;;;15.45;82.85
16544;BME280;8384;47.996;7.786;2022-09-09T02:38:48;98500.44;;;15.42;83.54
16544;BME280;8384;47.996;7.786;2022-09-09T02:41:18;98497.94;;;15.59;82.94
16544;BME280;8384;47.996;7.786;2022-09-09T02:43:45;98506.13;;;15.65;82.40
16544;BME280;8384;47.996;7.786;2022-09-09T02:46:45;98509.88;;;15.55;83.42
16544;BME280;8384;47.996;7.786;2022-09-09T02:49:40;98515.91;;;15.57;82.91
16544;BME280;8384;47.996;7.786;2022-09-09T02:52:13;98502.66;;;15.59;82.13
16544;BME280;8384;47.996;7.786;2022-09-09T02:54:41;98506.50;;;15.58;82.01
16544;BME280;8384;47.996;7.786;2022-09-09T02:57:28;98509.09;;;15.68;81.62
16544;BME280;8384;47.996;7.786;2022-09-09T02:59:57;98505.34;;;15.78;81.28
16544;BME280;8384;47.996;7.786;2022-09-09T03:02:22;98497.34;;;15.63;82.15
16544;BME280;8384;47.996;7.786;2022-09-09T03:04:48;98503.34;;;14.93;86.00
16544;BME280;8384;47.996;7.786;2022-09-09T03:07:17;98494.25;;;14.93;86.47
16544;BME280;8384;47.996;7.786;2022-09-09T03:09:43;98478.31;;;14.90;86.19
16544;BME280;8384;47.996;7.786;2022-09-09T03:12:09;98514.34;;;15.32;87.04
16544;BME280;8384;47.996;7.786;2022-09-09T03:14:36;98504.16;;;14.94;88.75
16544;BME280;8384;47.996;7.786;2022-09-09T03:17:02;98503.34;;;14.93;89.43
16544;BME280;8384;47.996;7.786;2022-09-09T03:19:27;98500.06;;;14.91;89.64
16544;BME280;8384;47.996;7.786;2022-09-09T03:21:53;98501.59;;;14.97;89.63
16544;BME280;8384;47.996;7.786;2022-09-09T03:24:19;98501.94;;;15.15;88.28
16544;BME280;8384;47.996;7.786;2022-09-09T03:26:44;98498.56;;;15.37;87.64
16544;BME280;8384;47.996;7.786;2022-09-09T03:29:11;98496.94;;;15.17;85.45
16544;BME280;8384;47.996;7.786;2022-09-09T03:31:37;98497.53;;;15.33;83.90
16544;BME280;8384;47.996;7.786;2022-09-09T03:34:02;98491.09;;;15.57;82.60
16544;BME280;8384;47.996;7.786;2022-09-09T03:36:28;98500.13;;;15.77;82.40
16544;BME280;8384;47.996;7.786;2022-09-09T03:38:54;98480.88;;;15.57;81.10
16544;BME280;8384;47.996;7.786;2022-09-09T03:41:23;98502.53;;;15.64;81.77
16544;BME280;8384;47.996;7.786;2022-09-09T03:43:51;98502.72;;;15.54;82.43
16544;BME280;8384;47.996;7.786;2022-09-09T03:46:20;98489.19;;;15.71;81.22
16544;BME280;8384;47.996;7.786;2022-09-09T03:48:46;98496.28;;;15.58;81.75
16544;BME280;8384;47.996;7.786;2022-09-09T03:51:12;98475.72;;;15.37;82.07
16544;BME280;8384;47.996;7.786;2022-09-09T03:53:37;98479.66;;;15.50;82.08
16544;BME280;8384;47.996;7.786;2022-09-09T03:56:04;98504.97;;;15.85;80.91
16544;BME280;8384;47.996;7.786;2022-09-09T03:58:35;98495.50;;;15.91;80.24
16544;BME280;8384;47.996;7.786;2022-09-09T04:01:06;98495.94;;;15.98;80.23
16544;BME280;8384;47.996;7.786;2022-09-09T04:03:32;98494.19;;;15.88;80.26
16544;BME280;8384;47.996;7.786;2022-09-09T04:05:59;98489.69;;;15.93;79.93
16544;BME280;8384;47.996;7.786;2022-09-09T04:08:25;98488.69;;;16.02;79.87
16544;BME280;8384;47.996;7.786;2022-09-09T04:10:51;98489.72;;;16.07;79.43
16544;BME280;8384;47.996;7.786;2022-09-09T04:13:17;98487.53;;;15.89;80.22
16544;BME280;8384;47.996;7.786;2022-09-09T04:15:44;98453.50;;;15.80;79.31
16544;BME280;8384;47.996;7.786;2022-09-09T04:18:10;98476.84;;;15.88;80.34
16544;BME280;8384;47.996;7.786;2022-09-09T04:20:35;98485.31;;;15.92;80.23
16544;BME280;8384;47.996;7.786;2022-09-09T04:23:01;98491.25;;;15.99;80.26
16544;BME280;8384;47.996;7.786;2022-09-09T04:25:26;98483.16;;;15.88;80.07
16544;BME280;8384;47.996;7.786;2022-09-09T04:27:55;98499.72;;;16.02;79.58
16544;BME280;8384;47.996;7.786;2022-09-09T04:30:21;98454.38;;;15.62;80.06
16544;BME280;8384;47.996;7.786;2022-09-09T04:32:47;98499.91;;;16.06;79.83
16544;BME280;8384;47.996;7.786;2022-09-09T04:35:12;98494.22;;;16.02;79.97
16544;BME280;8384;47.996;7.786;2022-09-09T04:37:38;98476.13;;;16.10;78.74
16544;BME280;8384;47.996;7.786;2022-09-09T04:40:03;98496.56;;;16.09;79.75
16544;BME280;8384;47.996;7.786;2022-09-09T04:42:28;98491.13;;;16.04;79.59
16544;BME280;8384;47.996;7.786;2022-09-09T04:44:54;98494.31;;;16.11;79.30
16544;BME280;8384;47.996;7.786;2022-09-09T04:47:19;98501.66;;;16.16;79.10
16544;BME280;8384;47.996;7.786;2022-09-09T04:49:44;98483.69;;;16.04;79.46
16544;BME280;8384;47.996;7.786;2022-09-09T04:52:10;98457.59;;;15.83;79.21
16544;BME280;8384;47.996;7.786;2022-09-09T04:54:35;98491.03;;;16.09;79.35
16544;BME280;8384;47.996;7.786;2022-09-09T04:57:00;98481.03;;;15.99;79.20
16544;BME280;8384;47.996;7.786;2022-09-09T04:59:26;98499.53;;;16.13;79.43
16544;BME280;8384;47.996;7.786;2022-09-09T05:01:51;98505.56;;;16.15;79.65
16544;BME280;8384;47.996;7.786;2022-09-09T05:04:16;98486.84;;;15.98;79.45
16544;BME280;8384;47.996;7.786;2022-09-09T05:06:41;98511.88;;;16.15;79.62
16544;BME280;8384;47.996;7.786;2022-09-09T05:09:07;98501.66;;;16.02;80.51
16544;BME280;8384;47.996;7.786;2022-09-09T05:11:33;98511.72;;;16.26;79.63
16544;BME280;8384;47.996;7.786;2022-09-09T05:14:01;98487.69;;;16.12;79.13
16544;BME280;8384;47.996;7.786;2022-09-09T05:16:27;98481.88;;;16.28;78.02
16544;BME280;8384;47.996;7.786;2022-09-09T05:18:52;98490.88;;;16.19;78.55
16544;BME280;8384;47.996;7.786;2022-09-09T05:21:19;98510.09;;;16.67;77.37
16544;BME280;8384;47.996;7.786;2022-09-09T05:23:45;98511.81;;;16.34;78.54
16544;BME280;8384;47.996;7.786;2022-09-09T05:26:16;98515.78;;;16.42;78.21
16544;BME280;8384;47.996;7.786;2022-09-09T05:28:42;98519.78;;;16.78;76.45
16544;BME280;8384;47.996;7.786;2022-09-09T05:31:09;98497.50;;;16.32;77.25
16544;BME280;8384;47.996;7.786;2022-09-09T05:33:36;98522.44;;;16.55;77.43
16544;BME280;8384;47.996;7.786;2022-09-09T05:36:02;98524.69;;;16.39;78.17
16544;BME280;8384;47.996;7.786;2022-09-09T05:38:30;98523.28;;;16.42;78.89
16544;BME280;8384;47.996;7.786;2022-09-09T05:40:56;98530.22;;;16.53;77.58
16544;BME280;8384;47.996;7.786;2022-09-09T05:43:23;98522.25;;;16.79;76.96
16544;BME280;8384;47.996;7.786;2022-09-09T05:45:58;98530.22;;;16.67;76.79
16544;BME280;8384;47.996;7.786;2022-09-09T05:48:28;98531.75;;;16.73;75.68
16544;BME280;8384;47.996;7.786;2022-09-09T05:50:53;98499.44;;;16.60;76.41
16544;BME280;8384;47.996;7.786;2022-09-09T05:53:19;98518.22;;;16.86;75.48
16544;BME280;8384;47.996;7.786;2022-09-09T05:55:45;98522.03;;;16.76;76.00
16544;BME280;8384;47.996;7.786;2022-09-09T05:58:10;98526.00;;;16.98;74.95
16544;BME280;8384;47.996;7.786;2022-09-09T06:00:36;98541.31;;;16.90;75.14
16544;BME280;8384;47.996;7.786;2022-09-09T06:03:02;98517.59;;;16.89;75.27
16544;BME280;8384;47.996;7.786;2022-09-09T06:05:28;98536.13;;;16.88;75.77
16544;BME280;8384;47.996;7.786;2022-09-09T06:07:55;98527.34;;;17.00;75.60
16544;BME280;8384;47.996;7.786;2022-09-09T06:10:20;98537.06;;;16.98;75.95
16544;BME280;8384;47.996;7.786;2022-09-09T06:12:46;98532.81;;;17.28;74.13
16544;BME280;8384;47.996;7.786;2022-09-09T06:15:11;98534.47;;;17.15;74.48
16544;BME280;8384;47.996;7.786;2022-09-09T06:17:36;98521.72;;;16.91;75.67
16544;BME280;8384;47.996;7.786;2022-09-09T06:20:02;98525.06;;;17.16;74.14
16544;BME280;8384;47.996;7.786;2022-09-09T06:22:27;98527.63;;;17.13;75.22
16544;BME280;8384;47.996;7.786;2022-09-09T06:24:53;98512.97;;;17.26;74.21
16544;BME280;8384;47.996;7.786;2022-09-09T06:27:18;98531.72;;;17.52;74.24
16544;BME280;8384;47.996;7.786;2022-09-09T06:29:44;98530.59;;;17.53;73.54
16544;BME280;8384;47.996;7.786;2022-09-09T06:32:09;98533.91;;;17.64;72.92
16544;BME280;8384;47.996;7.786;2022-09-09T06:34:34;98518.50;;;17.49;73.20
16544;BME280;8384;47.996;7.786;2022-09-09T06:37:01;98529.06;;;17.47;73.10
16544;BME280;8384;47.996;7.786;2022-09-09T06:39:26;98517.44;;;17.36;73.31
16544;BME280;8384;47.996;7.786;2022-09-09T06:41:52;98517.97;;;17.24;73.57
16544;BME280;8384;47.996;7.786;2022-09-09T06:44:20;98552.03;;;17.33;74.25
16544;BME280;8384;47.996;7.786;2022-09-09T06:46:45;98553.94;;;17.47;73.56
16544;BME280;8384;47.996;7.786;2022-09-09T06:49:13;98544.03;;;17.32;74.15
16544;BME280;8384;47.996;7.786;2022-09-09T06:51:38;98553.84;;;17.38;73.81
16544;BME280;8384;47.996;7.786;2022-09-09T06:54:08;98530.06;;;17.51;72.31
16544;BME280;8384;47.996;7.786;2022-09-09T06:56:36;98550.94;;;17.80;71.89
16544;BME280;8384;47.996;7.786;2022-09-09T06:59:04;98549.25;;;17.93;71.36
16544;BME280;8384;47.996;7.786;2022-09-09T07:01:32;98551.66;;;17.49;72.82
16544;BME280;8384;47.996;7.786;2022-09-09T07:03:59;98557.28;;;17.80;72.86
16544;BME280;8384;47.996;7.786;2022-09-09T07:06:27;98557.78;;;18.05;71.58
16544;BME280;8384;47.996;7.786;2022-09-09T07:08:54;98575.88;;;17.89;71.11
16544;BME280;8384;47.996;7.786;2022-09-09T07:11:22;98576.31;;;17.82;71.32
16544;BME280;8384;47.996;7.786;2022-09-09T07:13:48;98569.72;;;17.69;72.04
16544;BME280;8384;47.996;7.786;2022-09-09T07:16:18;98562.50;;;17.82;71.30
16544;BME280;8384;47.996;7.786;2022-09-09T07:18:44;98561.84;;;17.99;71.62
16544;BME280;8384;47.996;7.786;2022-09-09T07:21:11;98567.97;;;17.96;70.15
16544;BME280;8384;47.996;7.786;2022-09-09T07:23:38;98570.66;;;18.33;69.31
16544;BME280;8384;47.996;7.786;2022-09-09T07:26:09;98531.78;;;18.06;69.01
16544;BME280;8384;47.996;7.786;2022-09-09T07:28:35;98580.94;;;18.41;68.21
16544;BME280;8384;47.996;7.786;2022-09-09T07:31:01;98577.44;;;18.58;67.61
16544;BME280;8384;47.996;7.786;2022-09-09T07:33:31;98569.03;;;18.32;67.93
16544;BME280;8384;47.996;7.786;2022-09-09T07:36:10;98586.03;;;18.48;68.26
16544;BME280;8384;47.996;7.786;2022-09-09T07:38:40;98588.09;;;18.42;67.61
16544;BME280;8384;47.996;7.786;2022-09-09T07:41:07;98589.56;;;18.39;67.52
16544;BME280;8384;47.996;7.786;2022-09-09T07:43:37;98583.84;;;19.08;65.56
16544;BME280;8384;47.996;7.786;2022-09-09T07:46:02;98558.25;;;19.11;64.28
16544;BME280;8384;47.996;7.786;2022-09-09T07:48:28;98596.09;;;18.75;66.83
16544;BME280;8384;47.996;7.786;2022-09-09T07:51:03;98593.38;;;18.52;67.22
16544;BME280;8384;47.996;7.786;2022-09-09T07:53:29;98605.75;;;18.55;67.69
16544;BME280;8384;47.996;7.786;2022-09-09T07:56:10;98594.38;;;18.56;67.02
16544;BME280;8384;47.996;7.786;2022-09-09T07:58:37;98604.94;;;18.54;67.81
16544;BME280;8384;47.996;7.786;2022-09-09T08:01:15;98610.34;;;18.59;67.80
16544;BME280;8384;47.996;7.786;2022-09-09T08:03:41;98603.19;;;18.58;67.90
16544;BME280;8384;47.996;7.786;2022-09-09T08:06:08;98588.69;;;18.53;67.11
16544;BME280;8384;47.996;7.786;2022-09-09T08:08:35;98585.81;;;18.35;68.16
16544;BME280;8384;47.996;7.786;2022-09-09T08:11:03;98593.91;;;18.63;67.85
16544;BME280;8384;47.996;7.786;2022-09-09T08:13:29;98598.56;;;18.77;66.37
16544;BME280;8384;47.996;7.786;2022-09-09T08:16:13;98601.75;;;19.01;65.49
16544;BME280;8384;47.996;7.786;2022-09-09T08:18:39;98604.09;;;19.26;64.87
16544;BME280;8384;47.996;7.786;2022-09-09T08:21:17;98598.50;;;19.08;64.59
16544;BME280;8384;47.996;7.786;2022-09-09T08:23:44;98596.59;;;19.17;65.50
16544;BME280;8384;47.996;7.786;2022-09-09T08:26:24;98594.13;;;19.07;65.39
16544;BME280;8384;47.996;7.786;2022-09-09T08:28:51;98600.06;;;19.76;65.09
16544;BME280;8384;47.996;7.786;2022-09-09T08:31:28;98601.38;;;19.70;62.64
16544;BME280;8384;47.996;7.786;2022-09-09T08:33:55;98607.63;;;19.93;63.44
16544;BME280;8384;47.996;7.786;2022-09-09T08:36:23;98607.75;;;19.79;63.55
16544;BME280;8384;47.996;7.786;2022-09-09T08:38:53;98605.22;;;19.25;64.85
16544;BME280;8384;47.996;7.786;2022-09-09T08:44:00;98604.97;;;20.14;61.95
16544;BME280;8384;47.996;7.786;2022-09-09T08:47:07;98595.38;;;19.94;62.19
16544;BME280;8384;47.996;7.786;2022-09-09T08:52:28;98612.16;;;20.24;59.94
16544;BME280;8384;47.996;7.786;2022-09-09T08:57:49;98630.69;;;21.06;59.20
16544;BME280;8384;47.996;7.786;2022-09-09T09:00:15;98628.84;;;20.72;57.67
16544;BME280;8384;47.996;7.786;2022-09-09T09:02:49;98632.84;;;21.01;57.41
16544;BME280;8384;47.996;7.786;2022-09-09T09:05:55;98623.25;;;20.89;54.99
16544;BME280;8384;47.996;7.786;2022-09-09T09:08:32;98617.22;;;21.17;56.34
16544;BME280;8384;47.996;7.786;2022-09-09T09:11:03;98597.81;;;21.08;52.60
16544;BME280;8384;47.996;7.786;2022-09-09T09:13:52;98610.97;;;21.50;51.04
16544;BME280;8384;47.996;7.786;2022-09-09T09:17:04;98617.47;;;21.63;49.85
16544;BME280;8384;47.996;7.786;2022-09-09T09:19:33;98618.91;;;21.69;51.71
16544;BME280;8384;47.996;7.786;2022-09-09T09:22:06;98617.34;;;22.14;48.20
16544;BME280;8384;47.996;7.786;2022-09-09T09:27:16;98610.03;;;21.88;47.51
16544;BME280;8384;47.996;7.786;2022-09-09T09:29:44;98598.13;;;22.55;46.26
16544;BME280;8384;47.996;7.786;2022-09-09T09:32:14;98613.47;;;22.28;45.62
16544;BME280;8384;47.996;7.786;2022-09-09T09:34:41;98630.44;;;22.35;46.19
16544;BME280;8384;47.996;7.786;2022-09-09T09:37:17;98589.78;;;21.67;46.99
16544;BME280;8384;47.996;7.786;2022-09-09T09:39:46;98613.22;;;20.97;48.43
16544;BME280;8384;47.996;7.786;2022-09-09T09:42:15;98598.84;;;21.55;47.29
16544;BME280;8384;47.996;7.786;2022-09-09T09:44:42;98601.38;;;22.24;46.13
16544;BME280;8384;47.996;7.786;2022-09-09T09:47:17;98584.66;;;22.45;45.36
16544;BME280;8384;47.996;7.786;2022-09-09T09:49:59;98603.50;;;22.39;44.46
16544;BME280;8384;47.996;7.786;2022-09-09T09:52:30;98583.34;;;22.09;43.98
16544;BME280;8384;47.996;7.786;2022-09-09T09:54:57;98578.09;;;21.73;44.59
16544;BME280;8384;47.996;7.786;2022-09-09T09:57:28;98584.00;;;22.27;44.87
16544;BME280;8384;47.996;7.786;2022-09-09T10:00:13;98580.59;;;22.55;43.82
16544;BME280;8384;47.996;7.786;2022-09-09T10:02:41;98585.38;;;22.21;44.21
16544;BME280;8384;47.996;7.786;2022-09-09T10:05:16;98586.03;;;21.63;46.23
16544;BME280;8384;47.996;7.786;2022-09-09T10:07:42;98581.53;;;21.28;45.96
16544;BME280;8384;47.996;7.786;2022-09-09T10:10:18;98554.56;;;21.28;45.73
16544;BME280;8384;47.996;7.786;2022-09-09T10:15:47;98577.91;;;21.79;44.40
16544;BME280;8384;47.996;7.786;2022-09-09T10:29:30;98578.63;;;20.47;43.20
16544;BME280;8384;47.996;7.786;2022-09-09T10:32:33;98577.84;;;20.29;45.36
16544;BME280;8384;47.996;7.786;2022-09-09T10:35:24;98587.03;;;20.12;46.46
16544;BME280;8384;47.996;7.786;2022-09-09T10:38:24;98589.50;;;20.61;45.13
16544;BME280;8384;47.996;7.786;2022-09-09T10:46:15;98586.13;;;20.94;46.18
16544;BME280;8384;47.996;7.786;2022-09-09T10:54:49;98598.41;;;21.44;46.60
16544;BME280;8384;47.996;7.786;2022-09-09T10:57:17;98607.22;;;21.76;46.03
16544;BME280;8384;47.996;7.786;2022-09-09T10:59:50;98608.00;;;21.98;45.57
16544;BME280;8384;47.996;7.786;2022-09-09T11:02:27;98608.84;;;21.77;46.19
16544;BME280;8384;47.996;7.786;2022-09-09T11:05:14;98608.00;;;21.98;45.51
16544;BME280;8384;47.996;7.786;2022-09-09T11:07:51;98630.63;;;21.75;45.80
16544;BME280;8384;47.996;7.786;2022-09-09T11:12:48;98609.44;;;20.54;48.78
16544;BME280;8384;47.996;7.786;2022-09-09T11:15:22;98613.97;;;19.93;51.29
16544;BME280;8384;47.996;7.786;2022-09-09T11:17:52;98589.59;;;19.29;52.68
16544;BME280;8384;47.996;7.786;2022-09-09T11:20:19;98619.16;;;19.69;52.79
16544;BME280;8384;47.996;7.786;2022-09-09T11:22:50;98614.56;;;20.34;52.45
16544;BME280;8384;47.996;7.786;2022-09-09T11:25:19;98616.22;;;20.27;51.59
16544;BME280;8384;47.996;7.786;2022-09-09T11:36:59;98612.69;;;21.64;47.52
16544;BME280;8384;47.996;7.786;2022-09-09T11:42:26;98611.19;;;21.87;47.38
16544;BME280;8384;47.996;7.786;2022-09-09T11:44:51;98607.63;;;22.21;45.68
16544;BME280;8384;47.996;7.786;2022-09-09T11:47:26;98613.34;;;21.69;45.99
16544;BME280;8384;47.996;7.786;2022-09-09T11:50:06;98601.63;;;21.55;48.28
16544;BME280;8384;47.996;7.786;2022-09-09T11:52:43;98597.44;;;21.70;47.72
16544;BME280;8384;47.996;7.786;2022-09-09T11:55:33;98626.69;;;20.86;49.10
16544;BME280;8384;47.996;7.786;2022-09-09T11:58:14;98601.09;;;20.63;49.39
16544;BME280;8384;47.996;7.786;2022-09-09T12:00:41;98609.94;;;20.56;46.60
16544;BME280;8384;47.996;7.786;2022-09-09T12:06:27;98607.00;;;20.52;45.33
16544;BME280;8384;47.996;7.786;2022-09-09T12:09:04;98603.00;;;20.89;42.89
16544;BME280;8384;47.996;7.786;2022-09-09T12:11:31;98598.69;;;21.30;41.55
16544;BME280;8384;47.996;7.786;2022-09-09T12:13:58;98611.78;;;21.51;41.85
16544;BME280;8384;47.996;7.786;2022-09-09T12:16:35;98610.47;;;22.67;39.57
16544;BME280;8384;47.996;7.786;2022-09-09T12:19:14;98601.19;;;22.87;39.99
16544;BME280;8384;47.996;7.786;2022-09-09T12:21:48;98613.28;;;23.16;38.93
16544;BME280;8384;47.996;7.786;2022-09-09T12:24:32;98584.22;;;22.80;39.94
16544;BME280;8384;47.996;7.786;2022-09-09T12:27:13;98608.25;;;22.72;40.92
16544;BME280;8384;47.996;7.786;2022-09-09T12:29:51;98609.56;;;22.08;42.10
16544;BME280;8384;47.996;7.786;2022-09-09T12:32:24;98588.38;;;21.31;43.42
16544;BME280;8384;47.996;7.786;2022-09-09T12:34:55;98579.09;;;21.26;44.17
16544;BME280;8384;47.996;7.786;2022-09-09T12:37:45;98605.59;;;21.45;44.24
16544;BME280;8384;47.996;7.786;2022-09-09T12:40:21;98611.44;;;21.31;44.73
16544;BME280;8384;47.996;7.786;2022-09-09T12:42:47;98563.75;;;20.43;46.71
16544;BME280;8384;47.996;7.786;2022-09-09T12:45:20;98583.50;;;20.41;48.12
16544;BME280;8384;47.996;7.786;2022-09-09T12:48:08;98598.94;;;20.77;47.85
16544;BME280;8384;47.996;7.786;2022-09-09T12:50:50;98608.03;;;20.95;47.48
16544;BME280;8384;47.996;7.786;2022-09-09T12:53:30;98595.97;;;20.17;48.23
16544;BME280;8384;47.996;7.786;2022-09-09T12:56:00;98574.06;;;20.33;47.62
16544;BME280;8384;47.996;7.786;2022-09-09T12:58:28;98576.81;;;20.42;47.95
16544;BME280;8384;47.996;7.786;2022-09-09T13:00:58;98580.19;;;20.65;47.64
16544;BME280;8384;47.996;7.786;2022-09-09T13:03:25;98587.22;;;20.63;47.45
16544;BME280;8384;47.996;7.786;2022-09-09T13:05:52;98578.59;;;20.56;47.36
16544;BME280;8384;47.996;7.786;2022-09-09T13:08:18;98566.22;;;20.35;47.55
16544;BME280;8384;47.996;7.786;2022-09-09T13:11:01;98575.88;;;20.29;48.58
16544;BME280;8384;47.996;7.786;2022-09-09T13:13:54;98594.38;;;20.07;48.38
16544;BME280;8384;47.996;7.786;2022-09-09T13:16:32;98553.94;;;19.89;49.17
16544;BME280;8384;47.996;7.786;2022-09-09T13:19:09;98583.28;;;19.99;48.78
16544;BME280;8384;47.996;7.786;2022-09-09T13:21:37;98586.81;;;19.38;52.44
16544;BME280;8384;47.996;7.786;2022-09-09T13:24:04;98557.94;;;18.63;52.10
16544;BME280;8384;47.996;7.786;2022-09-09T13:26:33;98592.13;;;19.08;51.44
16544;BME280;8384;47.996;7.786;2022-09-09T13:29:16;98591.78;;;18.28;54.76
16544;BME280;8384;47.996;7.786;2022-09-09T13:31:45;98565.66;;;18.43;55.28
16544;BME280;8384;47.996;7.786;2022-09-09T13:34:26;98589.66;;;18.57;57.49
16544;BME280;8384;47.996;7.786;2022-09-09T13:37:02;98589.41;;;18.36;60.82
16544;BME280;8384;47.996;7.786;2022-09-09T13:39:31;98577.53;;;18.12;62.29
16544;BME280;8384;47.996;7.786;2022-09-09T13:41:57;98591.69;;;19.06;61.64
16544;BME280;8384;47.996;7.786;2022-09-09T13:44:31;98587.69;;;19.82;61.11
16544;BME280;8384;47.996;7.786;2022-09-09T13:47:17;98586.84;;;20.73;54.88
16544;BME280;8384;47.996;7.786;2022-09-09T13:49:44;98576.59;;;20.56;53.68
16544;BME280;8384;47.996;7.786;2022-09-09T13:52:15;98577.53;;;21.17;50.85
16544;BME280;8384;47.996;7.786;2022-09-09T13:54:42;98580.78;;;22.03;48.75
16544;BME280;8384;47.996;7.786;2022-09-09T13:57:16;98551.78;;;21.71;48.10
16544;BME280;8384;47.996;7.786;2022-09-09T13:59:43;98568.94;;;21.73;47.66
16544;BME280;8384;47.996;7.786;2022-09-09T14:02:09;98544.09;;;21.89;47.30
16544;BME280;8384;47.996;7.786;2022-09-09T14:04:34;98557.41;;;21.83;47.19
16544;BME280;8384;47.996;7.786;2022-09-09T14:07:00;98557.81;;;21.01;48.84
16544;BME280;8384;47.996;7.786;2022-09-09T14:09:26;98545.53;;;21.74;47.03
16544;BME280;8384;47.996;7.786;2022-09-09T14:11:51;98563.44;;;22.53;46.23
16544;BME280;8384;47.996;7.786;2022-09-09T14:14:16;98550.19;;;22.50;46.11
16544;BME280;8384;47.996;7.786;2022-09-09T14:16:42;98552.44;;;22.23;45.47
16544;BME280;8384;47.996;7.786;2022-09-09T14:19:08;98573.84;;;21.76;46.56
16544;BME280;8384;47.996;7.786;2022-09-09T14:21:34;98572.31;;;21.57;47.79
16544;BME280;8384;47.996;7.786;2022-09-09T14:23:59;98585.06;;;21.37;49.08
16544;BME280;8384;47.996;7.786;2022-09-09T14:26:25;98580.53;;;21.54;48.92
16544;BME280;8384;47.996;7.786;2022-09-09T14:28:51;98577.28;;;21.94;48.04
16544;BME280;8384;47.996;7.786;2022-09-09T14:31:17;98573.66;;;21.94;47.82
16544;BME280;8384;47.996;7.786;2022-09-09T14:33:43;98576.81;;;22.26;47.96
16544;BME280;8384;47.996;7.786;2022-09-09T14:36:09;98589.69;;;21.97;47.28
16544;BME280;8384;47.996;7.786;2022-09-09T14:38:37;98566.72;;;21.66;48.44
16544;BME280;8384;47.996;7.786;2022-09-09T14:41:07;98574.50;;;22.99;45.85
16544;BME280;8384;47.996;7.786;2022-09-09T14:43:33;98568.94;;;23.24;45.53
16544;BME280;8384;47.996;7.786;2022-09-09T14:46:09;98583.03;;;22.10;48.46
16544;BME280;8384;47.996;7.786;2022-09-09T14:48:35;98566.25;;;21.13;51.64
16544;BME280;8384;47.996;7.786;2022-09-09T14:51:11;98569.22;;;20.69;52.55